Aérodrome :
LOGIN :

S'inscrire | Disclaimer

   EN    FR    IT 

 










Légende :    VFR   VFR Marginal   IFR   IFR Intensif   IFR Très Intensif
Visi : 
Plafond : 
>= 8 km
>= 3000ft
5 à 8 km
1000 à 3000 ft
1500m à 5 km
500 à 1000 ft
800 à 1500m
200 à 500 ft
< 800m
< 200 ft
Symboles :   Orages  Brouillard  Fortes neiges  Fortes précipitations  Vent > 20 kt
SIGMETs :   Divers  Orages  Givrage  Turbulence  Onde Orograph.  Cendres Volcan.






- Altitude de l'aérodrome : 1674 ft
- Code IATA : BRN


LSZB - Bern Belp

DERNIER METAR :
  • 291750Z 31003KT 280V090 9999 OVC024 M00/M05 Q1027

METARs EXPIRÉS :
  • 291720Z 30004KT 9999 OVC025 M00/M04 Q1026
  • 291650Z 27005KT 210V290 9999 OVC025 00/M05 Q1026
  • 291620Z 27004KT 9999 OVC025 00/M05 Q1025
  • 291550Z 30004KT 9999 OVC025 00/M04 Q1026
  • 291520Z VRB03KT 9999 OVC025 01/M05 Q1025

TAF TAF LSZB
Valide du 29 à 15h jusqu'au 30 à 00h UTC


291425Z 2915/2924 VRB02KT 9999 BKN025
PROB40 2921/2924 CAVOK
ATIS : +41 22 417 40 76



MET'MAP, la Météo Aéronautique d'un coup d'oeil ! - Copyright ORBIFLY Décembre 2007 - Disclaimer

ORBIFLY MET'MAP TEAM :

Programmation & Développement : Alexandra Zaïnal
Sur une idée originale de : Baudouin d'Aumeries
Soutien technique & logistique : Manuel Goepfert
Assistance : Marc-Olivier Méhu




SOURCES & CREDITS :

   NOAA